Aviation Digital Data Service (ADDS)

Output produced by METARs form (2227 UTC 24 March 2019)
found at http://www.aviationweather.gov/metar/data/
 
OAIX 242156Z 00000KT 9999 CLR 05/02 A3014 RMK SLP151 T00460022 $
TAF OAIX 241500Z 2415/2521 31006KT 9999 FEW180 QNH3010INS 
     BECMG 2421/2422 VRB06KT 9999 SKC QNH3008INS TX18/2512Z TN03/2501Z
       
OAHR 241730Z VRB02KT 9999 FEW070 15/03 Q1017 RMK CLOSED A3004 BLU
TAF OAHR 241700Z 2418/2518 VRB03KT CAVOK 
     BECMG 2504/2506 12010KT 9999 SCT040 BKN080 
     BECMG 2507/2509 18015G25KT 9999 SCT040 BKN080
       
OAJL 242055Z VRB02KT 9999 CLR 16/06 A3000 RMK AO2A SLP136 T01620057 52003
TAF OAJL 241600Z 2416/2522 VRB06KT 9000 HZ FEW180 QNH2998INS 
     BECMG 2422/2423 VRB06KT 9999 NSW SKC QNH3003INS 
     BECMG 2506/2507 26009KT 9999 SKC QNH2997INS TX25/2510Z TN12/2501Z
       
OAKB 242150Z 31003KT CAVOK 05/M02 Q1021 NOSIG RMK A3017 BLU BLU
TAF OAKB 241705Z 2418/2518 VRB02KT CAVOK 
     PROB40 
     TEMPO 2502/2505 3000 FU
       
OAKN 242157Z 00000KT 9999 SCT060 BKN075 14/09 A3004 RMK AO2A SLP138 WND DATA ESTMD Q1018 PA3189 DA3854 T01410087
TAF OAKN 241500Z 2415/2521 05006KT 9999 BKN200 QNH3000INS 
     BECMG 2417/2418 07006KT 9000 HZ SCT200 QNH3001INS 
     BECMG 2513/2514 VRB06KT 9999 NSW FEW180 QNH2998INS TX23/2511Z TN13/2502Z
       
OAMS 242150Z 21002KT 9999 FEW240 10/08 Q1016 BLU+BLU+
TAF OAMS 241705Z 2418/2518 22006KT 9999 NSW BKN200 
     BECMG 2504/2506 04012KT 9999 NSW SCT120 BKN200 
     BECMG 2508/2510 06015G25KT 9999 NSW FEW080 SCT150 BKN200 
     TEMPO 2511/2515 07020G30KT 6000 NSW SCT080 BKN150 BKN200 
     BECMG 2513/2515 14008KT 9999 NSW SCT150 BKN200